Lake Leelanau, Michigan
Current Conditions -  °F | °C
As of 1:53 AM on Sunday 21 Dec 2014 (Local Time) from KTVC Reporting Station
Overcast Overcast  
Wind Chill: 28°   Ceiling: 4000
Heat Index: 28°   Visibility: 10mi
Dew Point: 22°   Wind: 3mph
Humidity: 78%   Direction: 160°SSE
Pressure: 30.23"   Gusts: NA
Location:  44.98°N, 85.71°W
Report Text: KTVC 210653Z AUTO 16003KT 10SM OVC040 M02/M06 A3023 RMK AO2 SLP246 T10221056
Loading
Personal Weather Stations






























Interactive Weather Map New forecast layout! Learn more

10-Day Weather Forecast

Advertisements
Track Severe Weather on mobile